PILOTS ONLINE: 512    ATC ONLINE: 63

KGKY

Arlington Municipal Airport

Location

City Arlington
Country  United States
Latitude 32° 39' 50" N
Longitude 97° 5' 39" W
Elevation 628 ft
Type Small Airport

Map

Weather

METAR
2014/10/24 13:53
KGKY 241353Z 14006KT 10SM CLR 17/13 A3016 RMK AO2 SLP207 T01720128
TAF
2014/10/24 12:21
TAF KGKY 241120Z 2412/2512 15005KT P6SM BKN060 
     FM241700 17009KT P6SM SCT300

Runways

16/34 6080 ft / 100 ft

Outbound flights

Callsign Flying to Pilot ATD/STD ETA Aircraft

Inbound flights

Callsign Flying from Pilot ATD ETA Aircraft